sensor_id;sensor_type;location;lat;lon;timestamp;pressure;altitude;pressure_sealevel;temperature;humidity
31761;BME280;18335;51.486;7.562;2023-04-28T00:01:13;100006.25;;;9.42;100.00
31761;BME280;18335;51.486;7.562;2023-04-28T00:03:39;100006.78;;;9.46;100.00
31761;BME280;18335;51.486;7.562;2023-04-28T00:06:06;100001.03;;;9.57;100.00
31761;BME280;18335;51.486;7.562;2023-04-28T00:08:33;100005.28;;;9.60;100.00
31761;BME280;18335;51.486;7.562;2023-04-28T00:11:00;99992.53;;;9.60;100.00
31761;BME280;18335;51.486;7.562;2023-04-28T00:13:27;99991.13;;;9.56;100.00
31761;BME280;18335;51.486;7.562;2023-04-28T00:15:55;99987.41;;;9.57;100.00
31761;BME280;18335;51.486;7.562;2023-04-28T00:18:24;99984.81;;;9.48;100.00
31761;BME280;18335;51.486;7.562;2023-04-28T00:20:51;99987.59;;;9.56;100.00
31761;BME280;18335;51.486;7.562;2023-04-28T00:23:17;99984.34;;;9.52;100.00
31761;BME280;18335;51.486;7.562;2023-04-28T00:25:49;99978.69;;;9.45;100.00
31761;BME280;18335;51.486;7.562;2023-04-28T00:28:16;99971.38;;;9.54;100.00
31761;BME280;18335;51.486;7.562;2023-04-28T00:30:43;99967.63;;;9.47;100.00
31761;BME280;18335;51.486;7.562;2023-04-28T00:33:11;99956.69;;;9.39;100.00
31761;BME280;18335;51.486;7.562;2023-04-28T00:35:38;99953.31;;;9.45;100.00
31761;BME280;18335;51.486;7.562;2023-04-28T00:38:04;99955.72;;;9.56;100.00
31761;BME280;18335;51.486;7.562;2023-04-28T00:40:32;99955.72;;;9.48;100.00
31761;BME280;18335;51.486;7.562;2023-04-28T00:42:59;99945.69;;;9.57;100.00
31761;BME280;18335;51.486;7.562;2023-04-28T00:45:26;99951.66;;;9.52;100.00
31761;BME280;18335;51.486;7.562;2023-04-28T00:47:53;99951.00;;;9.58;100.00
31761;BME280;18335;51.486;7.562;2023-04-28T00:50:22;99950.13;;;9.66;100.00
31761;BME280;18335;51.486;7.562;2023-04-28T00:52:50;99943.50;;;9.68;100.00
31761;BME280;18335;51.486;7.562;2023-04-28T00:55:17;99947.59;;;9.64;100.00
31761;BME280;18335;51.486;7.562;2023-04-28T00:57:44;99945.38;;;9.68;100.00
31761;BME280;18335;51.486;7.562;2023-04-28T01:00:14;99938.94;;;9.85;100.00
31761;BME280;18335;51.486;7.562;2023-04-28T01:02:41;99922.94;;;9.90;100.00
31761;BME280;18335;51.486;7.562;2023-04-28T01:05:08;99928.91;;;9.93;100.00
31761;BME280;18335;51.486;7.562;2023-04-28T01:07:37;99927.03;;;10.02;100.00
31761;BME280;18335;51.486;7.562;2023-04-28T01:10:06;99930.47;;;10.12;100.00
31761;BME280;18335;51.486;7.562;2023-04-28T01:12:33;99929.44;;;10.13;100.00
31761;BME280;18335;51.486;7.562;2023-04-28T01:15:00;99938.31;;;10.23;100.00
31761;BME280;18335;51.486;7.562;2023-04-28T01:17:27;99937.47;;;10.23;100.00
31761;BME280;18335;51.486;7.562;2023-04-28T01:19:54;99934.22;;;10.19;100.00
31761;BME280;18335;51.486;7.562;2023-04-28T01:22:21;99923.16;;;10.29;100.00
31761;BME280;18335;51.486;7.562;2023-04-28T01:24:49;99931.00;;;10.24;100.00
31761;BME280;18335;51.486;7.562;2023-04-28T01:27:16;99928.44;;;10.30;100.00
31761;BME280;18335;51.486;7.562;2023-04-28T01:29:43;99931.16;;;10.30;100.00
31761;BME280;18335;51.486;7.562;2023-04-28T01:32:09;99926.19;;;10.34;100.00
31761;BME280;18335;51.486;7.562;2023-04-28T01:34:36;99916.66;;;10.38;100.00
31761;BME280;18335;51.486;7.562;2023-04-28T01:37:04;99926.56;;;10.39;100.00
31761;BME280;18335;51.486;7.562;2023-04-28T01:39:31;99919.03;;;10.49;100.00
31761;BME280;18335;51.486;7.562;2023-04-28T01:42:03;99914.25;;;10.43;100.00
31761;BME280;18335;51.486;7.562;2023-04-28T01:44:30;99918.34;;;10.47;100.00
31761;BME280;18335;51.486;7.562;2023-04-28T01:46:57;99914.63;;;10.48;100.00
31761;BME280;18335;51.486;7.562;2023-04-28T01:49:23;99921.25;;;10.37;100.00
31761;BME280;18335;51.486;7.562;2023-04-28T01:51:50;99913.94;;;10.38;100.00
31761;BME280;18335;51.486;7.562;2023-04-28T01:54:17;99915.66;;;10.39;100.00
31761;BME280;18335;51.486;7.562;2023-04-28T01:56:43;99918.88;;;10.34;100.00
31761;BME280;18335;51.486;7.562;2023-04-28T01:59:14;99922.28;;;10.28;100.00
31761;BME280;18335;51.486;7.562;2023-04-28T02:01:41;99921.09;;;10.31;100.00
31761;BME280;18335;51.486;7.562;2023-04-28T02:04:08;99915.97;;;10.12;100.00
31761;BME280;18335;51.486;7.562;2023-04-28T02:06:36;99908.13;;;10.09;100.00
31761;BME280;18335;51.486;7.562;2023-04-28T02:09:03;99907.81;;;10.20;100.00
31761;BME280;18335;51.486;7.562;2023-04-28T02:11:32;99904.22;;;10.11;100.00
31761;BME280;18335;51.486;7.562;2023-04-28T02:13:59;99908.66;;;10.20;100.00
31761;BME280;18335;51.486;7.562;2023-04-28T02:16:27;99904.53;;;10.08;100.00
31761;BME280;18335;51.486;7.562;2023-04-28T02:18:54;99908.47;;;10.06;100.00
31761;BME280;18335;51.486;7.562;2023-04-28T02:21:20;99911.00;;;10.07;100.00
31761;BME280;18335;51.486;7.562;2023-04-28T02:23:47;99907.47;;;10.15;100.00
31761;BME280;18335;51.486;7.562;2023-04-28T02:26:14;99914.25;;;10.11;100.00
31761;BME280;18335;51.486;7.562;2023-04-28T02:28:41;99910.84;;;10.09;100.00
31761;BME280;18335;51.486;7.562;2023-04-28T02:31:10;99914.09;;;10.12;100.00
31761;BME280;18335;51.486;7.562;2023-04-28T02:33:39;99913.22;;;9.95;100.00
31761;BME280;18335;51.486;7.562;2023-04-28T02:36:08;99909.50;;;9.96;100.00
31761;BME280;18335;51.486;7.562;2023-04-28T02:38:34;99903.38;;;9.94;100.00
31761;BME280;18335;51.486;7.562;2023-04-28T02:41:03;99906.06;;;9.78;100.00
31761;BME280;18335;51.486;7.562;2023-04-28T02:43:31;99892.78;;;9.83;100.00
31761;BME280;18335;51.486;7.562;2023-04-28T02:45:58;99892.44;;;9.86;100.00
31761;BME280;18335;51.486;7.562;2023-04-28T02:48:25;99885.97;;;9.87;100.00
31761;BME280;18335;51.486;7.562;2023-04-28T02:50:53;99883.44;;;9.94;100.00
31761;BME280;18335;51.486;7.562;2023-04-28T02:53:21;99887.69;;;10.05;100.00
31761;BME280;18335;51.486;7.562;2023-04-28T02:55:48;99887.50;;;9.98;100.00
31761;BME280;18335;51.486;7.562;2023-04-28T02:58:15;99884.97;;;9.96;100.00
31761;BME280;18335;51.486;7.562;2023-04-28T03:00:43;99891.75;;;9.92;100.00
31761;BME280;18335;51.486;7.562;2023-04-28T03:03:09;99888.03;;;9.93;100.00
31761;BME280;18335;51.486;7.562;2023-04-28T03:05:36;99890.41;;;9.88;100.00
31761;BME280;18335;51.486;7.562;2023-04-28T03:08:05;99888.69;;;9.95;100.00
31761;BME280;18335;51.486;7.562;2023-04-28T03:10:32;99884.78;;;9.90;100.00
31761;BME280;18335;51.486;7.562;2023-04-28T03:12:59;99886.66;;;9.97;100.00
31761;BME280;18335;51.486;7.562;2023-04-28T03:15:27;99882.38;;;9.95;100.00
31761;BME280;18335;51.486;7.562;2023-04-28T03:17:54;99885.81;;;9.97;100.00
31761;BME280;18335;51.486;7.562;2023-04-28T03:20:21;99882.25;;;9.96;100.00
31761;BME280;18335;51.486;7.562;2023-04-28T03:22:48;99879.50;;;9.96;100.00
31761;BME280;18335;51.486;7.562;2023-04-28T03:25:16;99879.50;;;9.80;100.00
31761;BME280;18335;51.486;7.562;2023-04-28T03:27:48;99878.66;;;9.88;100.00
31761;BME280;18335;51.486;7.562;2023-04-28T03:30:15;99877.28;;;9.76;100.00
31761;BME280;18335;51.486;7.562;2023-04-28T03:32:41;99874.75;;;9.90;100.00
31761;BME280;18335;51.486;7.562;2023-04-28T03:35:08;99870.31;;;9.81;100.00
31761;BME280;18335;51.486;7.562;2023-04-28T03:37:36;99867.22;;;9.92;100.00
31761;BME280;18335;51.486;7.562;2023-04-28T03:40:04;99866.72;;;9.89;100.00
31761;BME280;18335;51.486;7.562;2023-04-28T03:42:47;99864.69;;;9.91;100.00
31761;BME280;18335;51.486;7.562;2023-04-28T03:45:22;99859.41;;;9.81;100.00
31761;BME280;18335;51.486;7.562;2023-04-28T03:47:48;99861.47;;;9.79;100.00
31761;BME280;18335;51.486;7.562;2023-04-28T03:50:15;99869.59;;;9.71;100.00
31761;BME280;18335;51.486;7.562;2023-04-28T03:52:43;99863.84;;;9.82;100.00
31761;BME280;18335;51.486;7.562;2023-04-28T03:55:10;99857.34;;;9.83;100.00
31761;BME280;18335;51.486;7.562;2023-04-28T03:57:37;99852.09;;;9.82;100.00
31761;BME280;18335;51.486;7.562;2023-04-28T04:00:07;99845.44;;;9.76;100.00
31761;BME280;18335;51.486;7.562;2023-04-28T04:02:40;99840.16;;;9.83;100.00
31761;BME280;18335;51.486;7.562;2023-04-28T04:05:07;99834.22;;;9.79;100.00
31761;BME280;18335;51.486;7.562;2023-04-28T04:07:34;99841.53;;;9.79;100.00
31761;BME280;18335;51.486;7.562;2023-04-28T04:10:01;99832.16;;;9.81;100.00
31761;BME280;18335;51.486;7.562;2023-04-28T04:12:28;99827.06;;;9.78;100.00
31761;BME280;18335;51.486;7.562;2023-04-28T04:14:54;99827.38;;;9.83;100.00
31761;BME280;18335;51.486;7.562;2023-04-28T04:17:22;99815.13;;;9.71;100.00
31761;BME280;18335;51.486;7.562;2023-04-28T04:19:49;99818.19;;;9.68;100.00
31761;BME280;18335;51.486;7.562;2023-04-28T04:22:16;99817.34;;;9.76;100.00
31761;BME280;18335;51.486;7.562;2023-04-28T04:24:43;99814.59;;;9.68;100.00
31761;BME280;18335;51.486;7.562;2023-04-28T04:27:10;99809.66;;;9.71;100.00
31761;BME280;18335;51.486;7.562;2023-04-28T04:29:39;99807.63;;;9.81;100.00
31761;BME280;18335;51.486;7.562;2023-04-28T04:32:10;99805.94;;;9.72;100.00
31761;BME280;18335;51.486;7.562;2023-04-28T04:34:40;99796.06;;;9.79;100.00
31761;BME280;18335;51.486;7.562;2023-04-28T04:37:08;99788.72;;;9.80;100.00
31761;BME280;18335;51.486;7.562;2023-04-28T04:39:39;99784.31;;;9.79;100.00
31761;BME280;18335;51.486;7.562;2023-04-28T04:42:07;99793.81;;;9.83;100.00
31761;BME280;18335;51.486;7.562;2023-04-28T04:44:43;99778.53;;;9.82;100.00
31761;BME280;18335;51.486;7.562;2023-04-28T04:47:19;99772.53;;;9.86;100.00
31761;BME280;18335;51.486;7.562;2023-04-28T04:49:47;99776.94;;;10.03;100.00
31761;BME280;18335;51.486;7.562;2023-04-28T04:52:14;99780.00;;;10.09;100.00
31761;BME280;18335;51.486;7.562;2023-04-28T04:54:41;99784.28;;;10.03;100.00
31761;BME280;18335;51.486;7.562;2023-04-28T04:57:09;99774.22;;;10.03;100.00
31761;BME280;18335;51.486;7.562;2023-04-28T04:59:55;99759.53;;;10.13;100.00
31761;BME280;18335;51.486;7.562;2023-04-28T05:02:22;99773.69;;;10.08;100.00
31761;BME280;18335;51.486;7.562;2023-04-28T05:04:50;99780.00;;;10.09;100.00
31761;BME280;18335;51.486;7.562;2023-04-28T05:07:18;99780.22;;;10.15;100.00
31761;BME280;18335;51.486;7.562;2023-04-28T05:09:45;99782.22;;;10.13;100.00
31761;BME280;18335;51.486;7.562;2023-04-28T05:12:11;99785.81;;;10.06;100.00
31761;BME280;18335;51.486;7.562;2023-04-28T05:14:38;99783.09;;;10.06;100.00
31761;BME280;18335;51.486;7.562;2023-04-28T05:17:05;99778.59;;;10.37;100.00
31761;BME280;18335;51.486;7.562;2023-04-28T05:19:36;99783.00;;;10.46;100.00
31761;BME280;18335;51.486;7.562;2023-04-28T05:22:04;99798.53;;;10.37;100.00
31761;BME280;18335;51.486;7.562;2023-04-28T05:24:34;99805.16;;;10.51;100.00
31761;BME280;18335;51.486;7.562;2023-04-28T05:27:01;99801.03;;;10.55;100.00
31761;BME280;18335;51.486;7.562;2023-04-28T05:29:28;99810.38;;;10.61;100.00
31761;BME280;18335;51.486;7.562;2023-04-28T05:31:55;99808.16;;;10.64;100.00
31761;BME280;18335;51.486;7.562;2023-04-28T05:34:23;99809.38;;;10.62;100.00
31761;BME280;18335;51.486;7.562;2023-04-28T05:36:50;99796.53;;;10.70;100.00
31761;BME280;18335;51.486;7.562;2023-04-28T05:39:22;99794.88;;;10.61;100.00
31761;BME280;18335;51.486;7.562;2023-04-28T05:41:48;99791.03;;;10.78;100.00
31761;BME280;18335;51.486;7.562;2023-04-28T05:44:15;99804.41;;;10.65;100.00
31761;BME280;18335;51.486;7.562;2023-04-28T05:46:42;99788.66;;;10.75;100.00
31761;BME280;18335;51.486;7.562;2023-04-28T05:49:09;99780.31;;;10.77;100.00
31761;BME280;18335;51.486;7.562;2023-04-28T05:51:36;99782.38;;;10.75;100.00
31761;BME280;18335;51.486;7.562;2023-04-28T05:54:03;99782.22;;;10.68;100.00
31761;BME280;18335;51.486;7.562;2023-04-28T05:56:36;99782.22;;;10.68;100.00
31761;BME280;18335;51.486;7.562;2023-04-28T05:59:03;99775.84;;;10.45;100.00
31761;BME280;18335;51.486;7.562;2023-04-28T06:01:30;99772.47;;;10.35;100.00
31761;BME280;18335;51.486;7.562;2023-04-28T06:03:57;99767.78;;;10.51;100.00
31761;BME280;18335;51.486;7.562;2023-04-28T06:06:24;99759.09;;;10.56;100.00
31761;BME280;18335;51.486;7.562;2023-04-28T06:08:52;99742.88;;;10.54;100.00
31761;BME280;18335;51.486;7.562;2023-04-28T06:11:19;99751.91;;;10.63;100.00
31761;BME280;18335;51.486;7.562;2023-04-28T06:13:48;99753.09;;;10.91;100.00
31761;BME280;18335;51.486;7.562;2023-04-28T06:16:17;99737.88;;;10.97;100.00
31761;BME280;18335;51.486;7.562;2023-04-28T06:18:44;99745.19;;;11.04;100.00
31761;BME280;18335;51.486;7.562;2023-04-28T06:21:10;99730.25;;;11.15;100.00
31761;BME280;18335;51.486;7.562;2023-04-28T06:23:37;99739.31;;;11.16;100.00
31761;BME280;18335;51.486;7.562;2023-04-28T06:26:05;99736.38;;;11.17;100.00
31761;BME280;18335;51.486;7.562;2023-04-28T06:28:32;99744.28;;;11.35;100.00
31761;BME280;18335;51.486;7.562;2023-04-28T06:31:00;99746.41;;;11.25;100.00
31761;BME280;18335;51.486;7.562;2023-04-28T06:33:27;99743.25;;;11.36;100.00
31761;BME280;18335;51.486;7.562;2023-04-28T06:35:53;99731.09;;;11.38;100.00
31761;BME280;18335;51.486;7.562;2023-04-28T06:38:21;99729.59;;;11.36;100.00
31761;BME280;18335;51.486;7.562;2023-04-28T06:40:47;99728.44;;;11.30;100.00
31761;BME280;18335;51.486;7.562;2023-04-28T06:43:14;99735.84;;;11.22;100.00
31761;BME280;18335;51.486;7.562;2023-04-28T06:46:01;99721.22;;;11.15;100.00
31761;BME280;18335;51.486;7.562;2023-04-28T06:48:27;99727.28;;;11.25;100.00
31761;BME280;18335;51.486;7.562;2023-04-28T06:50:54;99719.50;;;11.36;100.00
31761;BME280;18335;51.486;7.562;2023-04-28T06:53:21;99718.22;;;11.47;100.00
31761;BME280;18335;51.486;7.562;2023-04-28T06:55:48;99720.78;;;11.48;100.00
31761;BME280;18335;51.486;7.562;2023-04-28T06:58:15;99711.69;;;11.33;100.00
31761;BME280;18335;51.486;7.562;2023-04-28T07:00:41;99713.69;;;11.39;100.00
31761;BME280;18335;51.486;7.562;2023-04-28T07:03:10;99712.97;;;11.60;100.00
31761;BME280;18335;51.486;7.562;2023-04-28T07:05:36;99704.31;;;11.56;100.00
31761;BME280;18335;51.486;7.562;2023-04-28T07:08:05;99687.59;;;11.74;100.00
31761;BME280;18335;51.486;7.562;2023-04-28T07:10:31;99703.28;;;12.09;100.00
31761;BME280;18335;51.486;7.562;2023-04-28T07:12:58;99705.06;;;11.88;100.00
31761;BME280;18335;51.486;7.562;2023-04-28T07:15:25;99708.38;;;12.27;100.00
31761;BME280;18335;51.486;7.562;2023-04-28T07:17:52;99711.28;;;12.26;100.00
31761;BME280;18335;51.486;7.562;2023-04-28T07:20:20;99712.84;;;12.64;100.00
31761;BME280;18335;51.486;7.562;2023-04-28T07:22:47;99707.59;;;12.48;100.00
31761;BME280;18335;51.486;7.562;2023-04-28T07:25:13;99709.97;;;12.36;100.00
31761;BME280;18335;51.486;7.562;2023-04-28T07:27:40;99705.25;;;12.45;100.00
31761;BME280;18335;51.486;7.562;2023-04-28T07:30:07;99701.56;;;12.38;100.00
31761;BME280;18335;51.486;7.562;2023-04-28T07:32:34;99690.47;;;12.60;100.00
31761;BME280;18335;51.486;7.562;2023-04-28T07:35:01;99695.56;;;12.63;100.00
31761;BME280;18335;51.486;7.562;2023-04-28T07:37:30;99692.44;;;12.81;100.00
31761;BME280;18335;51.486;7.562;2023-04-28T07:39:56;99693.16;;;12.90;100.00
31761;BME280;18335;51.486;7.562;2023-04-28T07:42:23;99696.34;;;12.93;100.00
31761;BME280;18335;51.486;7.562;2023-04-28T07:44:50;99700.91;;;12.86;100.00
31761;BME280;18335;51.486;7.562;2023-04-28T07:47:17;99699.06;;;12.93;100.00
31761;BME280;18335;51.486;7.562;2023-04-28T07:49:43;99696.78;;;13.11;100.00
31761;BME280;18335;51.486;7.562;2023-04-28T07:52:10;99696.53;;;13.49;100.00
31761;BME280;18335;51.486;7.562;2023-04-28T07:54:38;99692.06;;;13.48;100.00
31761;BME280;18335;51.486;7.562;2023-04-28T07:57:05;99691.97;;;13.35;100.00
31761;BME280;18335;51.486;7.562;2023-04-28T07:59:32;99690.81;;;13.22;100.00
31761;BME280;18335;51.486;7.562;2023-04-28T08:01:59;99699.56;;;13.60;100.00
31761;BME280;18335;51.486;7.562;2023-04-28T08:04:26;99696.03;;;13.94;100.00
31761;BME280;18335;51.486;7.562;2023-04-28T08:06:52;99698.63;;;13.74;100.00
31761;BME280;18335;51.486;7.562;2023-04-28T08:09:19;99699.22;;;13.70;100.00
31761;BME280;18335;51.486;7.562;2023-04-28T08:11:47;99701.19;;;13.76;100.00
31761;BME280;18335;51.486;7.562;2023-04-28T08:14:14;99706.22;;;14.00;100.00
31761;BME280;18335;51.486;7.562;2023-04-28T08:16:40;99709.53;;;14.23;100.00
31761;BME280;18335;51.486;7.562;2023-04-28T08:19:07;99706.47;;;14.39;100.00
31761;BME280;18335;51.486;7.562;2023-04-28T08:21:34;99703.75;;;14.46;100.00
31761;BME280;18335;51.486;7.562;2023-04-28T08:24:01;99700.59;;;14.49;100.00
31761;BME280;18335;51.486;7.562;2023-04-28T08:26:28;99703.63;;;14.61;100.00
31761;BME280;18335;51.486;7.562;2023-04-28T08:28:57;99701.59;;;14.82;100.00
31761;BME280;18335;51.486;7.562;2023-04-28T08:31:23;99708.00;;;15.09;100.00
31761;BME280;18335;51.486;7.562;2023-04-28T08:33:50;99702.97;;;15.19;100.00
31761;BME280;18335;51.486;7.562;2023-04-28T08:36:17;99700.44;;;15.11;100.00
31761;BME280;18335;51.486;7.562;2023-04-28T08:38:44;99707.84;;;15.30;100.00
31761;BME280;18335;51.486;7.562;2023-04-28T08:41:12;99697.91;;;15.29;100.00
31761;BME280;18335;51.486;7.562;2023-04-28T08:43:40;99694.53;;;15.27;100.00
31761;BME280;18335;51.486;7.562;2023-04-28T08:46:09;99687.97;;;15.28;100.00
31761;BME280;18335;51.486;7.562;2023-04-28T08:48:38;99696.47;;;15.60;100.00
31761;BME280;18335;51.486;7.562;2023-04-28T08:51:06;99696.66;;;15.38;100.00
31761;BME280;18335;51.486;7.562;2023-04-28T08:53:36;99683.78;;;15.72;100.00
31761;BME280;18335;51.486;7.562;2023-04-28T08:56:05;99683.16;;;15.89;100.00
31761;BME280;18335;51.486;7.562;2023-04-28T08:58:34;99676.34;;;16.18;100.00
31761;BME280;18335;51.486;7.562;2023-04-28T09:01:01;99676.69;;;16.41;100.00
31761;BME280;18335;51.486;7.562;2023-04-28T09:03:30;99679.72;;;16.14;100.00
31761;BME280;18335;51.486;7.562;2023-04-28T09:05:57;99678.25;;;16.18;100.00
31761;BME280;18335;51.486;7.562;2023-04-28T09:08:24;99673.78;;;16.10;100.00
31761;BME280;18335;51.486;7.562;2023-04-28T09:11:05;99661.19;;;16.98;100.00
31761;BME280;18335;51.486;7.562;2023-04-28T09:13:33;99659.50;;;16.97;100.00
31761;BME280;18335;51.486;7.562;2023-04-28T09:16:00;99666.06;;;16.51;100.00
31761;BME280;18335;51.486;7.562;2023-04-28T09:18:29;99660.16;;;16.54;100.00
31761;BME280;18335;51.486;7.562;2023-04-28T09:21:04;99660.97;;;16.62;100.00
31761;BME280;18335;51.486;7.562;2023-04-28T09:23:32;99659.50;;;16.59;100.00
31761;BME280;18335;51.486;7.562;2023-04-28T09:26:00;99654.53;;;16.81;100.00
31761;BME280;18335;51.486;7.562;2023-04-28T09:28:28;99655.25;;;16.63;100.00
31761;BME280;18335;51.486;7.562;2023-04-28T09:30:55;99643.78;;;17.04;100.00
31761;BME280;18335;51.486;7.562;2023-04-28T09:33:22;99648.84;;;17.07;100.00
31761;BME280;18335;51.486;7.562;2023-04-28T09:35:50;99643.69;;;16.86;100.00
31761;BME280;18335;51.486;7.562;2023-04-28T09:38:18;99638.31;;;16.59;100.00
31761;BME280;18335;51.486;7.562;2023-04-28T09:40:55;99636.28;;;16.80;100.00
31761;BME280;18335;51.486;7.562;2023-04-28T09:43:26;99648.88;;;17.00;100.00
31761;BME280;18335;51.486;7.562;2023-04-28T09:45:54;99645.06;;;17.01;100.00
31761;BME280;18335;51.486;7.562;2023-04-28T09:48:30;99650.56;;;17.08;100.00
31761;BME280;18335;51.486;7.562;2023-04-28T09:50:59;99652.00;;;17.42;100.00
31761;BME280;18335;51.486;7.562;2023-04-28T09:53:27;99649.22;;;17.42;100.00
31761;BME280;18335;51.486;7.562;2023-04-28T09:55:56;99653.00;;;16.85;100.00
31761;BME280;18335;51.486;7.562;2023-04-28T09:58:25;99652.66;;;17.06;100.00
31761;BME280;18335;51.486;7.562;2023-04-28T10:00:54;99646.84;;;16.89;100.00
31761;BME280;18335;51.486;7.562;2023-04-28T10:03:22;99653.69;;;16.74;100.00
31761;BME280;18335;51.486;7.562;2023-04-28T10:05:50;99652.38;;;16.83;100.00
31761;BME280;18335;51.486;7.562;2023-04-28T10:08:19;99657.94;;;16.70;100.00
31761;BME280;18335;51.486;7.562;2023-04-28T10:10:48;99657.50;;;16.73;100.00
31761;BME280;18335;51.486;7.562;2023-04-28T10:13:16;99657.81;;;17.27;100.00
31761;BME280;18335;51.486;7.562;2023-04-28T10:15:44;99648.16;;;17.43;100.00
31761;BME280;18335;51.486;7.562;2023-04-28T10:18:11;99650.44;;;17.21;100.00
31761;BME280;18335;51.486;7.562;2023-04-28T10:20:40;99652.94;;;17.29;100.00
31761;BME280;18335;51.486;7.562;2023-04-28T10:23:29;99647.44;;;17.29;100.00
31761;BME280;18335;51.486;7.562;2023-04-28T10:25:59;99643.59;;;16.99;100.00
31761;BME280;18335;51.486;7.562;2023-04-28T10:28:26;99639.41;;;17.21;100.00
31761;BME280;18335;51.486;7.562;2023-04-28T10:31:10;99642.31;;;17.01;100.00
31761;BME280;18335;51.486;7.562;2023-04-28T10:33:38;99644.81;;;17.41;100.00
31761;BME280;18335;51.486;7.562;2023-04-28T10:36:07;99634.66;;;17.35;100.00
31761;BME280;18335;51.486;7.562;2023-04-28T10:38:35;99624.22;;;17.68;100.00
31761;BME280;18335;51.486;7.562;2023-04-28T10:41:33;99624.94;;;17.32;100.00
31761;BME280;18335;51.486;7.562;2023-04-28T10:44:00;99627.09;;;17.80;100.00
31761;BME280;18335;51.486;7.562;2023-04-28T10:46:26;99619.28;;;18.31;100.00
31761;BME280;18335;51.486;7.562;2023-04-28T10:48:56;99615.38;;;18.75;100.00
31761;BME280;18335;51.486;7.562;2023-04-28T10:51:27;99621.31;;;18.24;100.00
31761;BME280;18335;51.486;7.562;2023-04-28T10:54:22;99619.38;;;18.24;100.00
31761;BME280;18335;51.486;7.562;2023-04-28T10:57:17;99621.88;;;17.90;100.00
31761;BME280;18335;51.486;7.562;2023-04-28T10:59:44;99631.56;;;18.17;100.00
31761;BME280;18335;51.486;7.562;2023-04-28T11:02:38;99625.44;;;18.33;100.00
31761;BME280;18335;51.486;7.562;2023-04-28T11:05:16;99625.72;;;17.89;100.00
31761;BME280;18335;51.486;7.562;2023-04-28T11:11:24;99624.09;;;17.81;100.00
31761;BME280;18335;51.486;7.562;2023-04-28T11:13:52;99620.84;;;18.09;100.00
31761;BME280;18335;51.486;7.562;2023-04-28T11:16:22;99616.66;;;17.57;100.00
31761;BME280;18335;51.486;7.562;2023-04-28T11:19:00;99619.41;;;17.32;100.00
31761;BME280;18335;51.486;7.562;2023-04-28T11:21:31;99612.00;;;17.57;100.00
31761;BME280;18335;51.486;7.562;2023-04-28T11:23:58;99607.09;;;17.59;100.00
31761;BME280;18335;51.486;7.562;2023-04-28T11:26:27;99615.63;;;17.27;100.00
31761;BME280;18335;51.486;7.562;2023-04-28T11:28:55;99617.88;;;17.36;100.00
31761;BME280;18335;51.486;7.562;2023-04-28T11:31:24;99626.09;;;16.87;100.00
31761;BME280;18335;51.486;7.562;2023-04-28T11:33:59;99612.88;;;16.95;100.00
31761;BME280;18335;51.486;7.562;2023-04-28T11:36:30;99628.13;;;16.98;100.00
31761;BME280;18335;51.486;7.562;2023-04-28T11:38:59;99630.47;;;16.56;100.00
31761;BME280;18335;51.486;7.562;2023-04-28T11:41:27;99637.28;;;16.47;100.00
31761;BME280;18335;51.486;7.562;2023-04-28T11:43:54;99641.16;;;16.27;100.00
31761;BME280;18335;51.486;7.562;2023-04-28T11:46:22;99635.22;;;16.30;100.00
31761;BME280;18335;51.486;7.562;2023-04-28T11:48:59;99638.69;;;15.92;100.00
31761;BME280;18335;51.486;7.562;2023-04-28T11:51:31;99637.56;;;16.20;100.00
31761;BME280;18335;51.486;7.562;2023-04-28T11:53:59;99642.03;;;16.14;100.00
31761;BME280;18335;51.486;7.562;2023-04-28T11:56:28;99642.53;;;15.91;100.00
31761;BME280;18335;51.486;7.562;2023-04-28T11:59:03;99638.44;;;16.07;100.00
31761;BME280;18335;51.486;7.562;2023-04-28T12:01:31;99631.38;;;16.37;100.00
31761;BME280;18335;51.486;7.562;2023-04-28T12:03:58;99642.66;;;16.16;100.00
31761;BME280;18335;51.486;7.562;2023-04-28T12:06:25;99636.94;;;16.18;100.00
31761;BME280;18335;51.486;7.562;2023-04-28T12:08:53;99644.50;;;16.35;100.00
31761;BME280;18335;51.486;7.562;2023-04-28T12:11:20;99632.47;;;16.81;100.00
31761;BME280;18335;51.486;7.562;2023-04-28T12:14:07;99628.94;;;17.05;100.00
31761;BME280;18335;51.486;7.562;2023-04-28T12:16:38;99630.78;;;16.80;100.00
31761;BME280;18335;51.486;7.562;2023-04-28T12:19:08;99630.13;;;16.84;100.00
31761;BME280;18335;51.486;7.562;2023-04-28T12:21:36;99629.97;;;16.73;100.00
31761;BME280;18335;51.486;7.562;2023-04-28T12:24:17;99633.72;;;16.85;100.00
31761;BME280;18335;51.486;7.562;2023-04-28T12:26:44;99620.47;;;17.00;100.00
31761;BME280;18335;51.486;7.562;2023-04-28T12:32:13;99639.16;;;16.53;100.00
31761;BME280;18335;51.486;7.562;2023-04-28T12:34:41;99642.56;;;16.55;100.00
31761;BME280;18335;51.486;7.562;2023-04-28T12:37:07;99642.88;;;16.21;100.00
31761;BME280;18335;51.486;7.562;2023-04-28T12:39:35;99646.66;;;16.33;100.00
31761;BME280;18335;51.486;7.562;2023-04-28T12:42:02;99644.53;;;16.22;100.00
31761;BME280;18335;51.486;7.562;2023-04-28T12:44:31;99645.16;;;16.31;100.00
31761;BME280;18335;51.486;7.562;2023-04-28T12:47:04;99645.97;;;16.38;100.00
31761;BME280;18335;51.486;7.562;2023-04-28T12:49:33;99646.66;;;16.84;100.00
31761;BME280;18335;51.486;7.562;2023-04-28T12:52:00;99640.94;;;17.17;100.00
31761;BME280;18335;51.486;7.562;2023-04-28T12:54:27;99650.56;;;16.64;100.00
31761;BME280;18335;51.486;7.562;2023-04-28T12:56:54;99651.53;;;16.82;100.00
31761;BME280;18335;51.486;7.562;2023-04-28T12:59:20;99654.78;;;17.35;100.00
31761;BME280;18335;51.486;7.562;2023-04-28T13:01:48;99652.06;;;17.04;100.00
31761;BME280;18335;51.486;7.562;2023-04-28T13:04:15;99648.22;;;17.36;100.00
31761;BME280;18335;51.486;7.562;2023-04-28T13:06:43;99641.63;;;17.37;100.00